Camp Rogers, Georgia
Current Conditions -  °F | °C
As of 10:58 AM on Sunday 21 Dec 2014 (Local Time) from KLSF Reporting Station
Overcast Overcast  
Wind Chill: 52°   Ceiling: 800
Heat Index: 52°   Visibility: 10mi
Dew Point: 49°   Wind: 8mph
Humidity: 90%   Direction: 60°ENE
Pressure: 30.17"   Gusts: NA
Location:  32.373°N, 84.7961°W
Report Text: KLSF 211558Z AUTO 06007KT 10SM OVC008 11/10 A3017 RMK AO2 SLP219 T01120096
Loading
Personal Weather Stations






























Interactive Weather Map New forecast layout! Learn more

10-Day Weather Forecast

Advertisements
Track Severe Weather on mobile